sensor_id;sensor_type;location;lat;lon;timestamp;temperature;humidity
73509;SHT30;61750;55.036;73.312;2022-08-19T00:01:48;22.60;46.46
73509;SHT30;61750;55.036;73.312;2022-08-19T00:04:23;22.59;46.42
73509;SHT30;61750;55.036;73.312;2022-08-19T00:06:50;22.60;46.53
73509;SHT30;61750;55.036;73.312;2022-08-19T00:09:19;22.64;46.64
73509;SHT30;61750;55.036;73.312;2022-08-19T00:11:45;22.71;46.88
73509;SHT30;61750;55.036;73.312;2022-08-19T00:14:15;22.69;46.92
73509;SHT30;61750;55.036;73.312;2022-08-19T00:16:45;22.70;46.88
73509;SHT30;61750;55.036;73.312;2022-08-19T00:19:16;22.69;46.78
73509;SHT30;61750;55.036;73.312;2022-08-19T00:21:43;22.76;46.83
73509;SHT30;61750;55.036;73.312;2022-08-19T00:24:10;22.71;46.79
73509;SHT30;61750;55.036;73.312;2022-08-19T00:26:37;22.71;46.85
73509;SHT30;61750;55.036;73.312;2022-08-19T00:29:12;22.71;46.87
73509;SHT30;61750;55.036;73.312;2022-08-19T00:31:38;22.71;46.81
73509;SHT30;61750;55.036;73.312;2022-08-19T00:34:09;22.70;46.85
73509;SHT30;61750;55.036;73.312;2022-08-19T00:36:35;22.71;46.83
73509;SHT30;61750;55.036;73.312;2022-08-19T00:39:01;22.71;46.75
73509;SHT30;61750;55.036;73.312;2022-08-19T00:41:27;22.73;46.84
73509;SHT30;61750;55.036;73.312;2022-08-19T00:46:30;22.71;46.83
73509;SHT30;61750;55.036;73.312;2022-08-19T00:48:59;22.74;46.84
73509;SHT30;61750;55.036;73.312;2022-08-19T00:51:27;22.73;46.79
73509;SHT30;61750;55.036;73.312;2022-08-19T00:53:59;22.76;46.65
73509;SHT30;61750;55.036;73.312;2022-08-19T00:56:27;22.74;46.74
73509;SHT30;61750;55.036;73.312;2022-08-19T00:59:04;22.74;46.74
73509;SHT30;61750;55.036;73.312;2022-08-19T01:01:39;22.79;46.67
73509;SHT30;61750;55.036;73.312;2022-08-19T01:04:12;22.77;46.64
73509;SHT30;61750;55.036;73.312;2022-08-19T01:06:43;22.76;46.67
73509;SHT30;61750;55.036;73.312;2022-08-19T01:09:10;22.79;46.60
73509;SHT30;61750;55.036;73.312;2022-08-19T01:11:40;22.77;46.61
73509;SHT30;61750;55.036;73.312;2022-08-19T01:14:08;22.76;46.64
73509;SHT30;61750;55.036;73.312;2022-08-19T01:16:35;22.80;46.66
73509;SHT30;61750;55.036;73.312;2022-08-19T01:19:49;22.81;46.61
73509;SHT30;61750;55.036;73.312;2022-08-19T01:24:52;22.84;46.98
73509;SHT30;61750;55.036;73.312;2022-08-19T01:27:19;22.87;47.04
73509;SHT30;61750;55.036;73.312;2022-08-19T01:29:45;22.89;47.14
73509;SHT30;61750;55.036;73.312;2022-08-19T01:32:22;22.87;47.32
73509;SHT30;61750;55.036;73.312;2022-08-19T01:34:48;22.84;47.34
73509;SHT30;61750;55.036;73.312;2022-08-19T01:37:15;22.81;47.37
73509;SHT30;61750;55.036;73.312;2022-08-19T01:39:42;22.84;47.37
73509;SHT30;61750;55.036;73.312;2022-08-19T01:42:14;22.87;47.29
73509;SHT30;61750;55.036;73.312;2022-08-19T01:44:41;22.84;47.31
73509;SHT30;61750;55.036;73.312;2022-08-19T01:47:08;22.84;47.24
73509;SHT30;61750;55.036;73.312;2022-08-19T01:49:41;22.86;47.17
73509;SHT30;61750;55.036;73.312;2022-08-19T01:52:07;22.86;47.25
73509;SHT30;61750;55.036;73.312;2022-08-19T01:54:40;22.84;47.17
73509;SHT30;61750;55.036;73.312;2022-08-19T01:57:10;22.83;47.18
73509;SHT30;61750;55.036;73.312;2022-08-19T01:59:42;22.83;47.12
73509;SHT30;61750;55.036;73.312;2022-08-19T02:02:09;22.86;47.15
73509;SHT30;61750;55.036;73.312;2022-08-19T02:04:42;22.86;47.14
73509;SHT30;61750;55.036;73.312;2022-08-19T02:07:08;22.86;47.15
73509;SHT30;61750;55.036;73.312;2022-08-19T02:09:40;22.81;47.17
73509;SHT30;61750;55.036;73.312;2022-08-19T02:12:07;22.83;47.11
73509;SHT30;61750;55.036;73.312;2022-08-19T02:14:44;22.83;47.10
73509;SHT30;61750;55.036;73.312;2022-08-19T02:17:11;22.83;47.12
73509;SHT30;61750;55.036;73.312;2022-08-19T02:19:40;22.87;47.00
73509;SHT30;61750;55.036;73.312;2022-08-19T02:22:07;22.87;47.11
73509;SHT30;61750;55.036;73.312;2022-08-19T02:24:41;22.83;47.10
73509;SHT30;61750;55.036;73.312;2022-08-19T02:27:07;22.84;47.15
73509;SHT30;61750;55.036;73.312;2022-08-19T02:29:41;22.86;47.15
73509;SHT30;61750;55.036;73.312;2022-08-19T02:32:07;22.84;47.19
73509;SHT30;61750;55.036;73.312;2022-08-19T02:34:43;22.84;47.17
73509;SHT30;61750;55.036;73.312;2022-08-19T02:37:10;22.87;47.19
73509;SHT30;61750;55.036;73.312;2022-08-19T02:39:57;22.87;47.14
73509;SHT30;61750;55.036;73.312;2022-08-19T02:42:29;22.87;47.14
73509;SHT30;61750;55.036;73.312;2022-08-19T02:44:57;22.86;47.15
73509;SHT30;61750;55.036;73.312;2022-08-19T02:47:23;22.87;47.14
73509;SHT30;61750;55.036;73.312;2022-08-19T02:49:55;22.87;47.13
73509;SHT30;61750;55.036;73.312;2022-08-19T02:52:33;22.90;47.02
73509;SHT30;61750;55.036;73.312;2022-08-19T02:55:11;22.86;47.03
73509;SHT30;61750;55.036;73.312;2022-08-19T02:57:47;22.91;47.00
73509;SHT30;61750;55.036;73.312;2022-08-19T03:00:24;22.89;47.01
73509;SHT30;61750;55.036;73.312;2022-08-19T03:02:50;22.86;46.92
73509;SHT30;61750;55.036;73.312;2022-08-19T03:05:18;22.86;46.99
73509;SHT30;61750;55.036;73.312;2022-08-19T03:07:45;22.86;47.01
73509;SHT30;61750;55.036;73.312;2022-08-19T03:10:23;22.87;47.09
73509;SHT30;61750;55.036;73.312;2022-08-19T03:12:49;22.89;47.06
73509;SHT30;61750;55.036;73.312;2022-08-19T03:15:16;22.87;47.00
73509;SHT30;61750;55.036;73.312;2022-08-19T03:17:42;22.86;47.03
73509;SHT30;61750;55.036;73.312;2022-08-19T03:20:13;22.89;47.19
73509;SHT30;61750;55.036;73.312;2022-08-19T03:22:50;22.86;47.24
73509;SHT30;61750;55.036;73.312;2022-08-19T03:25:21;22.87;47.20
73509;SHT30;61750;55.036;73.312;2022-08-19T03:27:48;22.90;47.16
73509;SHT30;61750;55.036;73.312;2022-08-19T03:30:19;22.84;47.11
73509;SHT30;61750;55.036;73.312;2022-08-19T03:32:46;22.87;47.05
73509;SHT30;61750;55.036;73.312;2022-08-19T03:35:22;22.87;47.01
73509;SHT30;61750;55.036;73.312;2022-08-19T03:37:49;22.87;47.06
73509;SHT30;61750;55.036;73.312;2022-08-19T03:40:26;22.87;47.00
73509;SHT30;61750;55.036;73.312;2022-08-19T03:42:57;22.86;47.00
73509;SHT30;61750;55.036;73.312;2022-08-19T03:45:29;22.87;46.99
73509;SHT30;61750;55.036;73.312;2022-08-19T03:48:06;22.86;47.02
73509;SHT30;61750;55.036;73.312;2022-08-19T03:50:32;22.90;47.00
73509;SHT30;61750;55.036;73.312;2022-08-19T03:52:58;22.84;46.95
73509;SHT30;61750;55.036;73.312;2022-08-19T03:55:25;22.89;46.95
73509;SHT30;61750;55.036;73.312;2022-08-19T03:57:52;22.87;46.97
73509;SHT30;61750;55.036;73.312;2022-08-19T04:00:18;22.84;46.94
73509;SHT30;61750;55.036;73.312;2022-08-19T04:02:45;22.86;46.92
73509;SHT30;61750;55.036;73.312;2022-08-19T04:05:22;22.87;46.95
73509;SHT30;61750;55.036;73.312;2022-08-19T04:07:58;22.86;46.88
73509;SHT30;61750;55.036;73.312;2022-08-19T04:10:27;22.89;47.14
73509;SHT30;61750;55.036;73.312;2022-08-19T04:12:54;22.91;47.18
73509;SHT30;61750;55.036;73.312;2022-08-19T04:15:31;22.93;47.16
73509;SHT30;61750;55.036;73.312;2022-08-19T04:18:05;22.94;47.04
73509;SHT30;61750;55.036;73.312;2022-08-19T04:20:43;22.97;47.01
73509;SHT30;61750;55.036;73.312;2022-08-19T04:23:14;22.96;47.08
73509;SHT30;61750;55.036;73.312;2022-08-19T04:25:43;22.99;47.12
73509;SHT30;61750;55.036;73.312;2022-08-19T04:28:20;22.99;47.05
73509;SHT30;61750;55.036;73.312;2022-08-19T04:30:50;23.01;47.04
73509;SHT30;61750;55.036;73.312;2022-08-19T04:33:20;23.00;46.97
73509;SHT30;61750;55.036;73.312;2022-08-19T04:35:48;23.01;46.95
73509;SHT30;61750;55.036;73.312;2022-08-19T04:38:21;23.01;46.97
73509;SHT30;61750;55.036;73.312;2022-08-19T04:40:51;23.03;46.88
73509;SHT30;61750;55.036;73.312;2022-08-19T04:43:37;23.01;46.98
73509;SHT30;61750;55.036;73.312;2022-08-19T04:46:09;23.03;46.99
73509;SHT30;61750;55.036;73.312;2022-08-19T04:48:37;23.06;46.90
73509;SHT30;61750;55.036;73.312;2022-08-19T04:51:08;23.08;46.96
73509;SHT30;61750;55.036;73.312;2022-08-19T04:53:37;23.11;46.78
73509;SHT30;61750;55.036;73.312;2022-08-19T04:56:11;23.10;46.73
73509;SHT30;61750;55.036;73.312;2022-08-19T04:58:41;23.08;46.72
73509;SHT30;61750;55.036;73.312;2022-08-19T05:01:17;23.06;46.80
73509;SHT30;61750;55.036;73.312;2022-08-19T05:03:54;23.06;46.82
73509;SHT30;61750;55.036;73.312;2022-08-19T05:06:33;23.06;46.74
73509;SHT30;61750;55.036;73.312;2022-08-19T05:09:09;23.07;46.63
73509;SHT30;61750;55.036;73.312;2022-08-19T05:11:37;23.04;46.37
73509;SHT30;61750;55.036;73.312;2022-08-19T05:14:06;23.03;45.94
73509;SHT30;61750;55.036;73.312;2022-08-19T05:16:33;23.00;45.69
73509;SHT30;61750;55.036;73.312;2022-08-19T05:18:59;23.00;45.42
73509;SHT30;61750;55.036;73.312;2022-08-19T05:21:50;23.03;45.34
73509;SHT30;61750;55.036;73.312;2022-08-19T05:24:41;22.97;45.39
73509;SHT30;61750;55.036;73.312;2022-08-19T05:27:07;23.00;45.32
73509;SHT30;61750;55.036;73.312;2022-08-19T05:29:40;22.97;45.32
73509;SHT30;61750;55.036;73.312;2022-08-19T05:32:07;22.99;45.26
73509;SHT30;61750;55.036;73.312;2022-08-19T05:34:42;22.97;45.37
73509;SHT30;61750;55.036;73.312;2022-08-19T05:37:08;22.97;45.35
73509;SHT30;61750;55.036;73.312;2022-08-19T05:39:40;22.99;45.33
73509;SHT30;61750;55.036;73.312;2022-08-19T05:42:09;22.99;45.39
73509;SHT30;61750;55.036;73.312;2022-08-19T05:44:42;23.01;45.30
73509;SHT30;61750;55.036;73.312;2022-08-19T05:47:11;22.99;45.39
73509;SHT30;61750;55.036;73.312;2022-08-19T05:49:48;23.03;45.46
73509;SHT30;61750;55.036;73.312;2022-08-19T05:52:18;23.01;45.55
73509;SHT30;61750;55.036;73.312;2022-08-19T05:54:45;23.01;45.57
73509;SHT30;61750;55.036;73.312;2022-08-19T05:57:14;23.01;45.46
73509;SHT30;61750;55.036;73.312;2022-08-19T05:59:41;23.03;45.48
73509;SHT30;61750;55.036;73.312;2022-08-19T06:02:09;23.00;45.47
73509;SHT30;61750;55.036;73.312;2022-08-19T06:04:42;23.00;45.47
73509;SHT30;61750;55.036;73.312;2022-08-19T06:07:11;23.04;45.43
73509;SHT30;61750;55.036;73.312;2022-08-19T06:09:41;23.01;45.46
73509;SHT30;61750;55.036;73.312;2022-08-19T06:12:07;23.01;45.50
73509;SHT30;61750;55.036;73.312;2022-08-19T06:14:40;23.01;45.42
73509;SHT30;61750;55.036;73.312;2022-08-19T06:17:07;23.00;45.41
73509;SHT30;61750;55.036;73.312;2022-08-19T06:19:40;23.01;45.42
73509;SHT30;61750;55.036;73.312;2022-08-19T06:22:09;23.00;45.46
73509;SHT30;61750;55.036;73.312;2022-08-19T06:24:40;23.03;45.36
73509;SHT30;61750;55.036;73.312;2022-08-19T06:27:07;23.00;45.48
73509;SHT30;61750;55.036;73.312;2022-08-19T06:29:40;23.04;45.42
73509;SHT30;61750;55.036;73.312;2022-08-19T06:32:08;23.03;45.48
73509;SHT30;61750;55.036;73.312;2022-08-19T06:34:42;23.03;45.46
73509;SHT30;61750;55.036;73.312;2022-08-19T06:37:08;23.04;45.53
73509;SHT30;61750;55.036;73.312;2022-08-19T06:39:42;23.03;45.52
73509;SHT30;61750;55.036;73.312;2022-08-19T06:42:10;23.03;45.54
73509;SHT30;61750;55.036;73.312;2022-08-19T06:44:42;23.03;45.51
73509;SHT30;61750;55.036;73.312;2022-08-19T06:47:11;23.06;45.50
73509;SHT30;61750;55.036;73.312;2022-08-19T06:49:41;23.06;45.51
73509;SHT30;61750;55.036;73.312;2022-08-19T06:52:08;23.04;45.59
73509;SHT30;61750;55.036;73.312;2022-08-19T06:54:41;23.06;45.54
73509;SHT30;61750;55.036;73.312;2022-08-19T06:57:10;23.04;45.60
73509;SHT30;61750;55.036;73.312;2022-08-19T06:59:41;23.03;45.60
73509;SHT30;61750;55.036;73.312;2022-08-19T07:02:07;23.04;45.64
73509;SHT30;61750;55.036;73.312;2022-08-19T07:04:42;23.06;45.64
73509;SHT30;61750;55.036;73.312;2022-08-19T07:07:11;23.04;45.65
73509;SHT30;61750;55.036;73.312;2022-08-19T07:09:43;23.04;45.58
73509;SHT30;61750;55.036;73.312;2022-08-19T07:12:12;23.07;45.62
73509;SHT30;61750;55.036;73.312;2022-08-19T07:14:41;23.03;45.53
73509;SHT30;61750;55.036;73.312;2022-08-19T07:17:10;23.03;45.61
73509;SHT30;61750;55.036;73.312;2022-08-19T07:19:41;23.06;45.63
73509;SHT30;61750;55.036;73.312;2022-08-19T07:22:09;23.04;45.75
73509;SHT30;61750;55.036;73.312;2022-08-19T07:24:40;23.04;45.77
73509;SHT30;61750;55.036;73.312;2022-08-19T07:27:07;23.03;45.64
73509;SHT30;61750;55.036;73.312;2022-08-19T07:29:40;23.01;45.66
73509;SHT30;61750;55.036;73.312;2022-08-19T07:32:07;23.04;45.70
73509;SHT30;61750;55.036;73.312;2022-08-19T07:34:42;23.03;45.70
73509;SHT30;61750;55.036;73.312;2022-08-19T07:37:08;23.03;45.78
73509;SHT30;61750;55.036;73.312;2022-08-19T07:39:40;23.01;45.71
73509;SHT30;61750;55.036;73.312;2022-08-19T07:42:09;23.03;45.75
73509;SHT30;61750;55.036;73.312;2022-08-19T07:44:40;23.03;45.73
73509;SHT30;61750;55.036;73.312;2022-08-19T07:47:06;23.01;45.81
73509;SHT30;61750;55.036;73.312;2022-08-19T07:49:40;23.04;45.72
73509;SHT30;61750;55.036;73.312;2022-08-19T07:52:08;23.06;45.74
73509;SHT30;61750;55.036;73.312;2022-08-19T07:54:40;23.03;45.84
73509;SHT30;61750;55.036;73.312;2022-08-19T07:57:07;23.03;45.87
73509;SHT30;61750;55.036;73.312;2022-08-19T07:59:40;23.04;45.85
73509;SHT30;61750;55.036;73.312;2022-08-19T08:02:08;23.00;45.86
73509;SHT30;61750;55.036;73.312;2022-08-19T08:04:41;23.03;45.92
73509;SHT30;61750;55.036;73.312;2022-08-19T08:07:26;23.01;45.98
73509;SHT30;61750;55.036;73.312;2022-08-19T08:10:11;23.03;45.97
73509;SHT30;61750;55.036;73.312;2022-08-19T08:12:41;23.06;45.93
73509;SHT30;61750;55.036;73.312;2022-08-19T08:15:11;23.04;45.97
73509;SHT30;61750;55.036;73.312;2022-08-19T08:17:42;23.04;45.98
73509;SHT30;61750;55.036;73.312;2022-08-19T08:20:09;23.06;45.98
73509;SHT30;61750;55.036;73.312;2022-08-19T08:22:36;23.04;46.01
73509;SHT30;61750;55.036;73.312;2022-08-19T08:25:22;23.06;46.05
73509;SHT30;61750;55.036;73.312;2022-08-19T08:27:49;23.04;46.08
73509;SHT30;61750;55.036;73.312;2022-08-19T08:30:20;23.04;46.05
73509;SHT30;61750;55.036;73.312;2022-08-19T08:32:48;23.06;46.12
73509;SHT30;61750;55.036;73.312;2022-08-19T08:35:16;23.06;46.12
73509;SHT30;61750;55.036;73.312;2022-08-19T08:37:46;23.04;46.11
73509;SHT30;61750;55.036;73.312;2022-08-19T08:43:23;23.06;46.25
73509;SHT30;61750;55.036;73.312;2022-08-19T08:45:59;23.08;46.12
73509;SHT30;61750;55.036;73.312;2022-08-19T08:48:41;23.10;46.26
73509;SHT30;61750;55.036;73.312;2022-08-19T08:51:22;23.12;46.56
73509;SHT30;61750;55.036;73.312;2022-08-19T08:53:52;23.14;46.40
73509;SHT30;61750;55.036;73.312;2022-08-19T08:56:26;23.14;46.45
73509;SHT30;61750;55.036;73.312;2022-08-19T08:59:07;23.11;46.33
73509;SHT30;61750;55.036;73.312;2022-08-19T09:01:37;23.15;46.38
73509;SHT30;61750;55.036;73.312;2022-08-19T09:04:05;23.15;46.36
73509;SHT30;61750;55.036;73.312;2022-08-19T09:06:51;23.15;46.35
73509;SHT30;61750;55.036;73.312;2022-08-19T09:09:32;23.20;46.37
73509;SHT30;61750;55.036;73.312;2022-08-19T09:12:54;23.18;46.21
73509;SHT30;61750;55.036;73.312;2022-08-19T09:15:13;23.18;46.32
73509;SHT30;61750;55.036;73.312;2022-08-19T09:17:40;23.24;46.47
73509;SHT30;61750;55.036;73.312;2022-08-19T09:20:17;23.21;46.27
73509;SHT30;61750;55.036;73.312;2022-08-19T09:22:44;23.24;46.19
73509;SHT30;61750;55.036;73.312;2022-08-19T09:25:15;23.25;46.20
73509;SHT30;61750;55.036;73.312;2022-08-19T09:27:47;23.24;46.44
73509;SHT30;61750;55.036;73.312;2022-08-19T09:30:17;23.22;46.63
73509;SHT30;61750;55.036;73.312;2022-08-19T09:32:44;23.22;46.79
73509;SHT30;61750;55.036;73.312;2022-08-19T09:35:11;23.22;46.84
73509;SHT30;61750;55.036;73.312;2022-08-19T09:37:38;23.21;46.92
73509;SHT30;61750;55.036;73.312;2022-08-19T09:40:11;23.20;46.94
73509;SHT30;61750;55.036;73.312;2022-08-19T09:42:37;23.20;46.93
73509;SHT30;61750;55.036;73.312;2022-08-19T09:45:04;23.20;47.00
73509;SHT30;61750;55.036;73.312;2022-08-19T09:47:30;23.18;46.99
73509;SHT30;61750;55.036;73.312;2022-08-19T09:49:58;23.15;47.05
73509;SHT30;61750;55.036;73.312;2022-08-19T09:52:24;23.18;47.08
73509;SHT30;61750;55.036;73.312;2022-08-19T09:54:55;23.18;47.10
73509;SHT30;61750;55.036;73.312;2022-08-19T09:57:21;23.18;47.03
73509;SHT30;61750;55.036;73.312;2022-08-19T09:59:47;23.18;46.96
73509;SHT30;61750;55.036;73.312;2022-08-19T10:02:13;23.15;47.09
73509;SHT30;61750;55.036;73.312;2022-08-19T10:04:41;23.17;47.02
73509;SHT30;61750;55.036;73.312;2022-08-19T10:07:26;23.15;47.14
73509;SHT30;61750;55.036;73.312;2022-08-19T10:09:55;23.15;47.18
73509;SHT30;61750;55.036;73.312;2022-08-19T10:12:21;23.15;47.05
73509;SHT30;61750;55.036;73.312;2022-08-19T10:14:51;23.15;47.23
73509;SHT30;61750;55.036;73.312;2022-08-19T10:17:23;23.14;47.23
73509;SHT30;61750;55.036;73.312;2022-08-19T10:19:51;23.11;47.38
73509;SHT30;61750;55.036;73.312;2022-08-19T10:22:27;23.08;47.26
73509;SHT30;61750;55.036;73.312;2022-08-19T10:24:53;23.06;47.26
73509;SHT30;61750;55.036;73.312;2022-08-19T10:27:21;23.04;47.22
73509;SHT30;61750;55.036;73.312;2022-08-19T10:29:55;23.01;47.19
73509;SHT30;61750;55.036;73.312;2022-08-19T10:32:32;23.00;47.08
73509;SHT30;61750;55.036;73.312;2022-08-19T10:34:58;22.97;47.09
73509;SHT30;61750;55.036;73.312;2022-08-19T10:37:24;22.96;47.07
73509;SHT30;61750;55.036;73.312;2022-08-19T10:39:50;22.94;47.06
73509;SHT30;61750;55.036;73.312;2022-08-19T10:42:17;22.93;47.00
73509;SHT30;61750;55.036;73.312;2022-08-19T10:44:44;22.90;46.98
73509;SHT30;61750;55.036;73.312;2022-08-19T10:47:12;22.91;47.02
73509;SHT30;61750;55.036;73.312;2022-08-19T10:49:40;22.90;46.95
73509;SHT30;61750;55.036;73.312;2022-08-19T10:52:27;22.87;46.90
73509;SHT30;61750;55.036;73.312;2022-08-19T10:55:08;22.86;46.94
73509;SHT30;61750;55.036;73.312;2022-08-19T10:57:58;22.84;46.91
73509;SHT30;61750;55.036;73.312;2022-08-19T11:00:29;22.84;46.94
73509;SHT30;61750;55.036;73.312;2022-08-19T11:03:06;22.83;46.89
73509;SHT30;61750;55.036;73.312;2022-08-19T11:05:32;22.83;46.89
73509;SHT30;61750;55.036;73.312;2022-08-19T11:07:59;22.84;46.90
73509;SHT30;61750;55.036;73.312;2022-08-19T11:10:25;22.80;46.93
73509;SHT30;61750;55.036;73.312;2022-08-19T11:12:51;22.80;46.90
73509;SHT30;61750;55.036;73.312;2022-08-19T11:15:21;22.80;46.86
73509;SHT30;61750;55.036;73.312;2022-08-19T11:17:47;22.81;47.00
73509;SHT30;61750;55.036;73.312;2022-08-19T11:20:13;22.86;47.35
73509;SHT30;61750;55.036;73.312;2022-08-19T11:22:41;22.91;47.51
73509;SHT30;61750;55.036;73.312;2022-08-19T11:25:09;22.94;47.80
73509;SHT30;61750;55.036;73.312;2022-08-19T11:27:42;22.96;47.71
73509;SHT30;61750;55.036;73.312;2022-08-19T11:30:11;23.00;47.72
73509;SHT30;61750;55.036;73.312;2022-08-19T11:32:38;23.01;47.87
73509;SHT30;61750;55.036;73.312;2022-08-19T11:35:04;23.01;47.77
73509;SHT30;61750;55.036;73.312;2022-08-19T11:37:30;23.00;47.85
73509;SHT30;61750;55.036;73.312;2022-08-19T11:39:56;23.03;47.78
73509;SHT30;61750;55.036;73.312;2022-08-19T11:42:22;23.03;47.86
73509;SHT30;61750;55.036;73.312;2022-08-19T11:45:07;23.06;47.78
73509;SHT30;61750;55.036;73.312;2022-08-19T11:47:33;23.04;47.99
73509;SHT30;61750;55.036;73.312;2022-08-19T11:49:59;23.04;47.97
73509;SHT30;61750;55.036;73.312;2022-08-19T11:52:25;23.07;48.02
73509;SHT30;61750;55.036;73.312;2022-08-19T11:54:52;23.10;47.92
73509;SHT30;61750;55.036;73.312;2022-08-19T11:57:18;23.08;47.93
73509;SHT30;61750;55.036;73.312;2022-08-19T11:59:50;23.10;47.94
73509;SHT30;61750;55.036;73.312;2022-08-19T12:02:17;23.08;47.90
73509;SHT30;61750;55.036;73.312;2022-08-19T12:04:44;23.08;47.99
73509;SHT30;61750;55.036;73.312;2022-08-19T12:07:10;23.08;47.97
73509;SHT30;61750;55.036;73.312;2022-08-19T12:09:40;23.10;47.91
73509;SHT30;61750;55.036;73.312;2022-08-19T12:12:07;23.12;47.98
73509;SHT30;61750;55.036;73.312;2022-08-19T12:14:40;23.12;47.94
73509;SHT30;61750;55.036;73.312;2022-08-19T12:17:06;23.12;47.87
73509;SHT30;61750;55.036;73.312;2022-08-19T12:19:40;23.17;47.89
73509;SHT30;61750;55.036;73.312;2022-08-19T12:22:06;23.15;47.84
73509;SHT30;61750;55.036;73.312;2022-08-19T12:24:40;23.17;47.81
73509;SHT30;61750;55.036;73.312;2022-08-19T12:27:06;23.18;47.80
73509;SHT30;61750;55.036;73.312;2022-08-19T12:29:40;23.22;47.84
73509;SHT30;61750;55.036;73.312;2022-08-19T12:32:07;23.22;47.78
73509;SHT30;61750;55.036;73.312;2022-08-19T12:34:41;23.25;47.82
73509;SHT30;61750;55.036;73.312;2022-08-19T12:37:08;23.22;47.75
73509;SHT30;61750;55.036;73.312;2022-08-19T12:39:42;23.22;47.62
73509;SHT30;61750;55.036;73.312;2022-08-19T12:42:10;23.27;47.75
73509;SHT30;61750;55.036;73.312;2022-08-19T12:44:41;23.25;47.72
73509;SHT30;61750;55.036;73.312;2022-08-19T12:47:13;23.27;47.71
73509;SHT30;61750;55.036;73.312;2022-08-19T12:49:40;23.27;47.71
73509;SHT30;61750;55.036;73.312;2022-08-19T12:52:08;23.30;47.59
73509;SHT30;61750;55.036;73.312;2022-08-19T12:54:40;23.28;47.72
73509;SHT30;61750;55.036;73.312;2022-08-19T12:57:08;23.28;47.76
73509;SHT30;61750;55.036;73.312;2022-08-19T12:59:40;23.28;47.73
73509;SHT30;61750;55.036;73.312;2022-08-19T13:02:07;23.27;47.83
73509;SHT30;61750;55.036;73.312;2022-08-19T13:04:43;23.30;47.91
73509;SHT30;61750;55.036;73.312;2022-08-19T13:07:15;23.27;47.89
73509;SHT30;61750;55.036;73.312;2022-08-19T13:09:41;23.25;47.90
73509;SHT30;61750;55.036;73.312;2022-08-19T13:12:08;23.25;47.87
73509;SHT30;61750;55.036;73.312;2022-08-19T13:14:40;23.22;47.88
73509;SHT30;61750;55.036;73.312;2022-08-19T13:17:07;23.22;47.84
73509;SHT30;61750;55.036;73.312;2022-08-19T13:19:40;23.20;47.89
73509;SHT30;61750;55.036;73.312;2022-08-19T13:22:11;23.20;47.91
73509;SHT30;61750;55.036;73.312;2022-08-19T13:24:48;23.21;47.95
73509;SHT30;61750;55.036;73.312;2022-08-19T13:27:14;23.25;47.86
73509;SHT30;61750;55.036;73.312;2022-08-19T13:29:50;23.24;47.88
73509;SHT30;61750;55.036;73.312;2022-08-19T13:32:35;23.21;47.84
73509;SHT30;61750;55.036;73.312;2022-08-19T13:35:20;23.18;47.86
73509;SHT30;61750;55.036;73.312;2022-08-19T13:37:46;23.18;47.94
73509;SHT30;61750;55.036;73.312;2022-08-19T13:40:22;23.18;47.88
73509;SHT30;61750;55.036;73.312;2022-08-19T13:43:00;23.20;47.91
73509;SHT30;61750;55.036;73.312;2022-08-19T13:45:32;23.18;47.95
73509;SHT30;61750;55.036;73.312;2022-08-19T13:48:01;23.20;47.93
73509;SHT30;61750;55.036;73.312;2022-08-19T13:50:32;23.21;48.02
73509;SHT30;61750;55.036;73.312;2022-08-19T13:53:00;23.25;48.31
73509;SHT30;61750;55.036;73.312;2022-08-19T13:55:38;23.30;48.41
73509;SHT30;61750;55.036;73.312;2022-08-19T13:58:09;23.32;48.24
73509;SHT30;61750;55.036;73.312;2022-08-19T14:00:42;23.28;48.14
73509;SHT30;61750;55.036;73.312;2022-08-19T14:03:12;23.22;48.08
73509;SHT30;61750;55.036;73.312;2022-08-19T14:05:43;23.25;48.05
73509;SHT30;61750;55.036;73.312;2022-08-19T14:08:09;23.21;48.13
73509;SHT30;61750;55.036;73.312;2022-08-19T14:10:46;23.21;48.08
73509;SHT30;61750;55.036;73.312;2022-08-19T14:13:20;23.21;48.18
73509;SHT30;61750;55.036;73.312;2022-08-19T14:15:52;23.18;48.24
73509;SHT30;61750;55.036;73.312;2022-08-19T14:18:18;23.15;48.32
73509;SHT30;61750;55.036;73.312;2022-08-19T14:20:45;23.17;48.26
73509;SHT30;61750;55.036;73.312;2022-08-19T14:23:22;23.15;48.36
73509;SHT30;61750;55.036;73.312;2022-08-19T14:25:48;23.14;48.44
73509;SHT30;61750;55.036;73.312;2022-08-19T14:28:14;23.11;48.48
73509;SHT30;61750;55.036;73.312;2022-08-19T14:30:42;23.12;48.58
73509;SHT30;61750;55.036;73.312;2022-08-19T14:33:26;23.10;48.60
73509;SHT30;61750;55.036;73.312;2022-08-19T14:35:52;23.08;48.68
73509;SHT30;61750;55.036;73.312;2022-08-19T14:38:19;23.08;48.70
73509;SHT30;61750;55.036;73.312;2022-08-19T14:40:56;23.08;48.69
73509;SHT30;61750;55.036;73.312;2022-08-19T14:43:32;23.07;48.74
73509;SHT30;61750;55.036;73.312;2022-08-19T14:46:01;23.08;48.67
73509;SHT30;61750;55.036;73.312;2022-08-19T14:48:27;23.08;48.69
73509;SHT30;61750;55.036;73.312;2022-08-19T14:50:53;23.08;48.77
73509;SHT30;61750;55.036;73.312;2022-08-19T14:53:19;23.06;48.80
73509;SHT30;61750;55.036;73.312;2022-08-19T14:55:48;23.07;48.82
73509;SHT30;61750;55.036;73.312;2022-08-19T14:58:14;23.07;48.91
73509;SHT30;61750;55.036;73.312;2022-08-19T15:00:46;23.04;48.94
73509;SHT30;61750;55.036;73.312;2022-08-19T15:03:18;23.06;49.01
73509;SHT30;61750;55.036;73.312;2022-08-19T15:05:45;23.03;48.97
73509;SHT30;61750;55.036;73.312;2022-08-19T15:08:11;23.03;49.00
73509;SHT30;61750;55.036;73.312;2022-08-19T15:10:43;23.04;48.97
73509;SHT30;61750;55.036;73.312;2022-08-19T15:13:19;23.04;48.99
73509;SHT30;61750;55.036;73.312;2022-08-19T15:15:51;23.01;49.06
73509;SHT30;61750;55.036;73.312;2022-08-19T15:18:17;23.03;49.06
73509;SHT30;61750;55.036;73.312;2022-08-19T15:20:43;23.03;49.05
73509;SHT30;61750;55.036;73.312;2022-08-19T15:23:10;23.04;49.08
73509;SHT30;61750;55.036;73.312;2022-08-19T15:25:37;23.01;49.22
73509;SHT30;61750;55.036;73.312;2022-08-19T15:28:03;23.03;49.24
73509;SHT30;61750;55.036;73.312;2022-08-19T15:30:29;23.04;49.11
73509;SHT30;61750;55.036;73.312;2022-08-19T15:32:57;23.04;49.08
73509;SHT30;61750;55.036;73.312;2022-08-19T15:35:23;23.03;49.07
73509;SHT30;61750;55.036;73.312;2022-08-19T15:37:55;23.04;49.07
73509;SHT30;61750;55.036;73.312;2022-08-19T15:40:23;23.04;49.06
73509;SHT30;61750;55.036;73.312;2022-08-19T15:42:59;23.03;49.05
73509;SHT30;61750;55.036;73.312;2022-08-19T15:45:34;23.06;49.04